sensor_id;sensor_type;location;lat;lon;timestamp;pressure;altitude;pressure_sealevel;temperature;humidity
54459;BME280;40368;49.350;8.152;2024-01-11T00:00:46;1013.4;;;7.04;36.36
54459;BME280;40368;49.350;8.152;2024-01-11T00:01:46;1013.4;;;6.98;35.67
54459;BME280;40368;49.350;8.152;2024-01-11T00:02:46;1013.5;;;6.93;36.3
54459;BME280;40368;49.350;8.152;2024-01-11T00:03:46;1013.5;;;6.97;36.25
54459;BME280;40368;49.350;8.152;2024-01-11T00:04:51;1013.5;;;7.01;36.88
54459;BME280;40368;49.350;8.152;2024-01-11T00:05:46;1013.5;;;7.18;36.46
54459;BME280;40368;49.350;8.152;2024-01-11T00:06:46;1013.5;;;7.15;35.98
54459;BME280;40368;49.350;8.152;2024-01-11T00:07:46;1013.5;;;7.11;35.95
54459;BME280;40368;49.350;8.152;2024-01-11T00:08:46;1013.5;;;7.07;36.35
54459;BME280;40368;49.350;8.152;2024-01-11T00:09:47;1013.5;;;6.95;35.52
54459;BME280;40368;49.350;8.152;2024-01-11T00:10:46;1013.5;;;6.83;36.39
54459;BME280;40368;49.350;8.152;2024-01-11T00:11:46;1013.5;;;6.81;35.97
54459;BME280;40368;49.350;8.152;2024-01-11T00:12:46;1013.5;;;6.65;35.99
54459;BME280;40368;49.350;8.152;2024-01-11T00:13:46;1013.5;;;6.68;36.97
54459;BME280;40368;49.350;8.152;2024-01-11T00:14:46;1013.5;;;6.64;36.64
54459;BME280;40368;49.350;8.152;2024-01-11T00:15:46;1013.5;;;6.64;36.45
54459;BME280;40368;49.350;8.152;2024-01-11T00:16:46;1013.5;;;6.6;36.48
54459;BME280;40368;49.350;8.152;2024-01-11T00:17:46;1013.5;;;6.62;37.18
54459;BME280;40368;49.350;8.152;2024-01-11T00:18:47;1013.5;;;6.69;37.42
54459;BME280;40368;49.350;8.152;2024-01-11T00:19:46;1013.5;;;6.67;36.36
54459;BME280;40368;49.350;8.152;2024-01-11T00:20:46;1013.4;;;6.69;37.07
54459;BME280;40368;49.350;8.152;2024-01-11T00:21:46;1013.4;;;6.66;36.93
54459;BME280;40368;49.350;8.152;2024-01-11T00:22:46;1013.4;;;6.74;36.23
54459;BME280;40368;49.350;8.152;2024-01-11T00:23:46;1013.4;;;6.62;37.06
54459;BME280;40368;49.350;8.152;2024-01-11T00:24:46;1013.4;;;6.6;36.23
54459;BME280;40368;49.350;8.152;2024-01-11T00:25:46;1013.5;;;6.57;37.28
54459;BME280;40368;49.350;8.152;2024-01-11T00:26:46;1013.5;;;6.66;36.84
54459;BME280;40368;49.350;8.152;2024-01-11T00:27:46;1013.5;;;6.76;36.84
54459;BME280;40368;49.350;8.152;2024-01-11T00:28:47;1013.5;;;6.88;36.88
54459;BME280;40368;49.350;8.152;2024-01-11T00:29:46;1013.5;;;7.01;36.56
54459;BME280;40368;49.350;8.152;2024-01-11T00:30:46;1013.5;;;6.92;36.05
54459;BME280;40368;49.350;8.152;2024-01-11T00:31:46;1013.5;;;6.85;36.58
54459;BME280;40368;49.350;8.152;2024-01-11T00:32:46;1013.5;;;6.82;35.8
54459;BME280;40368;49.350;8.152;2024-01-11T00:33:46;1013.6;;;6.82;36.73
54459;BME280;40368;49.350;8.152;2024-01-11T00:34:46;1013.5;;;6.8;37.12
54459;BME280;40368;49.350;8.152;2024-01-11T00:35:46;1013.5;;;6.86;36.42
54459;BME280;40368;49.350;8.152;2024-01-11T00:36:46;1013.6;;;6.94;36.86
54459;BME280;40368;49.350;8.152;2024-01-11T00:37:46;1013.6;;;7.07;36.33
54459;BME280;40368;49.350;8.152;2024-01-11T00:38:46;1013.6;;;7.05;36.73
54459;BME280;40368;49.350;8.152;2024-01-11T00:39:46;1013.5;;;7.13;36.53
54459;BME280;40368;49.350;8.152;2024-01-11T00:40:46;1013.5;;;7.07;35.97
54459;BME280;40368;49.350;8.152;2024-01-11T00:41:46;1013.5;;;7.08;36.19
54459;BME280;40368;49.350;8.152;2024-01-11T00:42:46;1013.5;;;7.08;36.49
54459;BME280;40368;49.350;8.152;2024-01-11T00:43:46;1013.5;;;7.11;36.25
54459;BME280;40368;49.350;8.152;2024-01-11T00:44:46;1013.5;;;7.21;35.68
54459;BME280;40368;49.350;8.152;2024-01-11T00:45:46;1013.5;;;7.17;36.14
54459;BME280;40368;49.350;8.152;2024-01-11T00:46:46;1013.5;;;7.17;35.9
54459;BME280;40368;49.350;8.152;2024-01-11T00:47:46;1013.5;;;7.08;36.07
54459;BME280;40368;49.350;8.152;2024-01-11T00:48:46;1013.5;;;7.08;35.75
54459;BME280;40368;49.350;8.152;2024-01-11T00:49:46;1013.5;;;7.13;36.05
54459;BME280;40368;49.350;8.152;2024-01-11T00:50:46;1013.5;;;7.07;36.18
54459;BME280;40368;49.350;8.152;2024-01-11T00:51:46;1013.5;;;7.08;36.11
54459;BME280;40368;49.350;8.152;2024-01-11T00:52:46;1013.5;;;7.05;36.32
54459;BME280;40368;49.350;8.152;2024-01-11T00:53:46;1013.6;;;6.88;35.95
54459;BME280;40368;49.350;8.152;2024-01-11T00:54:46;1013.6;;;6.87;36.24
54459;BME280;40368;49.350;8.152;2024-01-11T00:55:46;1013.5;;;6.8;36.82
54459;BME280;40368;49.350;8.152;2024-01-11T00:56:46;1013.5;;;6.94;36.79
54459;BME280;40368;49.350;8.152;2024-01-11T00:57:46;1013.5;;;6.99;35.9
54459;BME280;40368;49.350;8.152;2024-01-11T00:58:46;1013.5;;;6.91;36.84
54459;BME280;40368;49.350;8.152;2024-01-11T00:59:46;1013.5;;;6.93;36.43
54459;BME280;40368;49.350;8.152;2024-01-11T01:00:46;1013.5;;;6.94;36.27
54459;BME280;40368;49.350;8.152;2024-01-11T01:01:46;1013.5;;;6.98;35.95
54459;BME280;40368;49.350;8.152;2024-01-11T01:02:46;1013.5;;;7;35.77
54459;BME280;40368;49.350;8.152;2024-01-11T01:03:46;1013.5;;;6.92;36.3
54459;BME280;40368;49.350;8.152;2024-01-11T01:04:46;1013.5;;;6.77;36.07
54459;BME280;40368;49.350;8.152;2024-01-11T01:05:46;1013.5;;;6.63;36.17
54459;BME280;40368;49.350;8.152;2024-01-11T01:06:46;1013.5;;;6.44;36.63
54459;BME280;40368;49.350;8.152;2024-01-11T01:07:46;1013.5;;;6.3;36.36
54459;BME280;40368;49.350;8.152;2024-01-11T01:08:46;1013.5;;;6.24;37.16
54459;BME280;40368;49.350;8.152;2024-01-11T01:09:46;1013.5;;;6.31;37.76
54459;BME280;40368;49.350;8.152;2024-01-11T01:10:51;1013.5;;;6.37;37.73
54459;BME280;40368;49.350;8.152;2024-01-11T01:11:46;1013.5;;;6.35;37.15
54459;BME280;40368;49.350;8.152;2024-01-11T01:12:47;1013.5;;;6.28;37
54459;BME280;40368;49.350;8.152;2024-01-11T01:13:46;1013.5;;;6.09;37.05
54459;BME280;40368;49.350;8.152;2024-01-11T01:14:46;1013.5;;;6.19;37.65
54459;BME280;40368;49.350;8.152;2024-01-11T01:15:47;1013.5;;;6.22;37.38
54459;BME280;40368;49.350;8.152;2024-01-11T01:16:47;1013.5;;;6.34;38.11
54459;BME280;40368;49.350;8.152;2024-01-11T01:17:46;1013.5;;;6.47;37.3
54459;BME280;40368;49.350;8.152;2024-01-11T01:18:46;1013.5;;;6.52;36.95
54459;BME280;40368;49.350;8.152;2024-01-11T01:19:46;1013.4;;;6.46;37.27
54459;BME280;40368;49.350;8.152;2024-01-11T01:20:46;1013.5;;;6.48;36.62
54459;BME280;40368;49.350;8.152;2024-01-11T01:21:46;1013.5;;;6.34;36.59
54459;BME280;40368;49.350;8.152;2024-01-11T01:22:46;1013.5;;;6.27;36.72
54459;BME280;40368;49.350;8.152;2024-01-11T01:23:46;1013.5;;;6.26;37.33
54459;BME280;40368;49.350;8.152;2024-01-11T01:24:46;1013.6;;;6.36;37.13
54459;BME280;40368;49.350;8.152;2024-01-11T01:25:46;1013.6;;;6.42;36.83
54459;BME280;40368;49.350;8.152;2024-01-11T01:26:46;1013.5;;;6.49;37.08
54459;BME280;40368;49.350;8.152;2024-01-11T01:27:46;1013.6;;;6.55;36.74
54459;BME280;40368;49.350;8.152;2024-01-11T01:28:46;1013.6;;;6.5;36.79
54459;BME280;40368;49.350;8.152;2024-01-11T01:29:46;1013.6;;;6.45;37.27
54459;BME280;40368;49.350;8.152;2024-01-11T01:30:46;1013.6;;;6.57;37.01
54459;BME280;40368;49.350;8.152;2024-01-11T01:31:47;1013.6;;;6.72;36.98
54459;BME280;40368;49.350;8.152;2024-01-11T01:32:46;1013.6;;;6.71;36.51
54459;BME280;40368;49.350;8.152;2024-01-11T01:33:46;1013.6;;;6.59;36.47
54459;BME280;40368;49.350;8.152;2024-01-11T01:34:46;1013.6;;;6.58;36.76
54459;BME280;40368;49.350;8.152;2024-01-11T01:35:46;1013.6;;;6.49;36.43
54459;BME280;40368;49.350;8.152;2024-01-11T01:36:46;1013.6;;;6.46;36.28
54459;BME280;40368;49.350;8.152;2024-01-11T01:37:46;1013.6;;;6.41;36.84
54459;BME280;40368;49.350;8.152;2024-01-11T01:38:46;1013.6;;;6.57;37.05
54459;BME280;40368;49.350;8.152;2024-01-11T01:39:46;1013.7;;;6.53;37.03
54459;BME280;40368;49.350;8.152;2024-01-11T01:40:46;1013.7;;;6.52;36.56
54459;BME280;40368;49.350;8.152;2024-01-11T01:41:46;1013.7;;;6.63;37.12
54459;BME280;40368;49.350;8.152;2024-01-11T01:42:46;1013.7;;;6.71;36.75
54459;BME280;40368;49.350;8.152;2024-01-11T01:43:46;1013.7;;;6.59;36.59
54459;BME280;40368;49.350;8.152;2024-01-11T01:44:46;1013.7;;;6.54;36.93
54459;BME280;40368;49.350;8.152;2024-01-11T01:45:46;1013.7;;;6.65;36.74
54459;BME280;40368;49.350;8.152;2024-01-11T01:46:46;1013.7;;;6.69;36.8
54459;BME280;40368;49.350;8.152;2024-01-11T01:47:46;1013.7;;;6.8;37.11
54459;BME280;40368;49.350;8.152;2024-01-11T01:48:46;1013.7;;;6.89;36.23
54459;BME280;40368;49.350;8.152;2024-01-11T01:49:46;1013.8;;;6.86;36.02
54459;BME280;40368;49.350;8.152;2024-01-11T01:50:46;1013.8;;;6.97;36.49
54459;BME280;40368;49.350;8.152;2024-01-11T01:51:46;1013.7;;;6.85;35.81
54459;BME280;40368;49.350;8.152;2024-01-11T01:52:47;1013.7;;;6.79;36.68
54459;BME280;40368;49.350;8.152;2024-01-11T01:53:46;1013.8;;;6.72;36.88
54459;BME280;40368;49.350;8.152;2024-01-11T01:54:46;1013.8;;;6.75;36.58
54459;BME280;40368;49.350;8.152;2024-01-11T01:55:46;1013.8;;;6.72;36.65
54459;BME280;40368;49.350;8.152;2024-01-11T01:56:46;1013.8;;;6.79;36.61
54459;BME280;40368;49.350;8.152;2024-01-11T01:57:46;1013.8;;;6.85;36.19
54459;BME280;40368;49.350;8.152;2024-01-11T01:58:46;1013.8;;;6.85;37.16
54459;BME280;40368;49.350;8.152;2024-01-11T01:59:47;1013.8;;;6.87;36.67
54459;BME280;40368;49.350;8.152;2024-01-11T02:00:46;1013.7;;;6.81;36.26
54459;BME280;40368;49.350;8.152;2024-01-11T02:01:46;1013.8;;;6.7;36.31
54459;BME280;40368;49.350;8.152;2024-01-11T02:02:48;1013.9;;;6.51;36.66
54459;BME280;40368;49.350;8.152;2024-01-11T02:03:46;1013.9;;;6.6;37.06
54459;BME280;40368;49.350;8.152;2024-01-11T02:04:47;1013.9;;;6.7;36.41
54459;BME280;40368;49.350;8.152;2024-01-11T02:05:46;1013.8;;;6.77;36.83
54459;BME280;40368;49.350;8.152;2024-01-11T02:06:47;1013.8;;;6.93;36.4
54459;BME280;40368;49.350;8.152;2024-01-11T02:07:46;1013.9;;;7.05;36.46
54459;BME280;40368;49.350;8.152;2024-01-11T02:08:46;1013.9;;;7.11;35.97
54459;BME280;40368;49.350;8.152;2024-01-11T02:09:46;1013.9;;;7.08;35.92
54459;BME280;40368;49.350;8.152;2024-01-11T02:10:47;1013.9;;;6.95;35.73
54459;BME280;40368;49.350;8.152;2024-01-11T02:11:46;1013.8;;;6.94;36.31
54459;BME280;40368;49.350;8.152;2024-01-11T02:12:46;1013.9;;;7.04;36.56
54459;BME280;40368;49.350;8.152;2024-01-11T02:13:46;1013.9;;;7.1;36.42
54459;BME280;40368;49.350;8.152;2024-01-11T02:14:46;1013.9;;;7.14;35.97
54459;BME280;40368;49.350;8.152;2024-01-11T02:15:46;1013.9;;;7.1;35.71
54459;BME280;40368;49.350;8.152;2024-01-11T02:16:46;1013.8;;;7.03;36.02
54459;BME280;40368;49.350;8.152;2024-01-11T02:17:46;1013.9;;;6.87;36.23
54459;BME280;40368;49.350;8.152;2024-01-11T02:18:46;1013.9;;;6.87;36.37
54459;BME280;40368;49.350;8.152;2024-01-11T02:19:46;1013.9;;;6.96;36.73
54459;BME280;40368;49.350;8.152;2024-01-11T02:20:46;1013.9;;;7.12;36.13
54459;BME280;40368;49.350;8.152;2024-01-11T02:21:46;1013.9;;;7.18;36.26
54459;BME280;40368;49.350;8.152;2024-01-11T02:22:52;1013.9;;;7.19;36.14
54459;BME280;40368;49.350;8.152;2024-01-11T02:23:53;1013.9;;;7.29;35.78
54459;BME280;40368;49.350;8.152;2024-01-11T02:24:46;1013.9;;;7.17;35.03
54459;BME280;40368;49.350;8.152;2024-01-11T02:25:46;1013.8;;;7.19;35.75
54459;BME280;40368;49.350;8.152;2024-01-11T02:27:02;1013.9;;;7.21;35.61
54459;BME280;40368;49.350;8.152;2024-01-11T02:27:46;1013.8;;;7.14;36.04
54459;BME280;40368;49.350;8.152;2024-01-11T02:28:46;1013.8;;;7.06;35.7
54459;BME280;40368;49.350;8.152;2024-01-11T02:29:46;1013.8;;;6.99;35.69
54459;BME280;40368;49.350;8.152;2024-01-11T02:30:46;1013.8;;;7.05;35.79
54459;BME280;40368;49.350;8.152;2024-01-11T02:31:46;1013.8;;;7.05;36
54459;BME280;40368;49.350;8.152;2024-01-11T02:32:47;1013.8;;;7.06;36.24
54459;BME280;40368;49.350;8.152;2024-01-11T02:33:46;1013.8;;;7.14;36.04
54459;BME280;40368;49.350;8.152;2024-01-11T02:34:46;1013.8;;;7.16;35.15
54459;BME280;40368;49.350;8.152;2024-01-11T02:35:46;1013.7;;;6.98;35.66
54459;BME280;40368;49.350;8.152;2024-01-11T02:36:46;1013.7;;;6.93;36.07
54459;BME280;40368;49.350;8.152;2024-01-11T02:37:46;1013.7;;;6.93;36.09
54459;BME280;40368;49.350;8.152;2024-01-11T02:38:47;1013.7;;;6.8;36.02
54459;BME280;40368;49.350;8.152;2024-01-11T02:39:46;1013.7;;;6.76;36.43
54459;BME280;40368;49.350;8.152;2024-01-11T02:40:46;1013.8;;;6.81;36.3
54459;BME280;40368;49.350;8.152;2024-01-11T02:41:47;1013.7;;;6.83;36.09
54459;BME280;40368;49.350;8.152;2024-01-11T02:42:46;1013.7;;;6.76;36.4
54459;BME280;40368;49.350;8.152;2024-01-11T02:43:47;1013.7;;;6.77;36.46
54459;BME280;40368;49.350;8.152;2024-01-11T02:44:46;1013.7;;;6.82;37.03
54459;BME280;40368;49.350;8.152;2024-01-11T02:45:47;1013.7;;;6.83;36.86
54459;BME280;40368;49.350;8.152;2024-01-11T02:46:46;1013.7;;;6.89;36.86
54459;BME280;40368;49.350;8.152;2024-01-11T02:47:46;1013.6;;;6.78;35.92
54459;BME280;40368;49.350;8.152;2024-01-11T02:48:46;1013.7;;;6.73;37.32
54459;BME280;40368;49.350;8.152;2024-01-11T02:49:46;1013.7;;;6.77;36.91
54459;BME280;40368;49.350;8.152;2024-01-11T02:50:46;1013.7;;;6.79;37.09
54459;BME280;40368;49.350;8.152;2024-01-11T02:51:46;1013.7;;;6.81;37.36
54459;BME280;40368;49.350;8.152;2024-01-11T02:52:46;1013.7;;;6.71;36.1
54459;BME280;40368;49.350;8.152;2024-01-11T02:53:46;1013.7;;;6.58;37.04
54459;BME280;40368;49.350;8.152;2024-01-11T02:54:46;1013.6;;;6.58;36.2
54459;BME280;40368;49.350;8.152;2024-01-11T02:55:46;1013.6;;;6.52;36.74
54459;BME280;40368;49.350;8.152;2024-01-11T02:56:46;1013.7;;;6.42;36.82
54459;BME280;40368;49.350;8.152;2024-01-11T02:57:46;1013.6;;;6.42;37.03
54459;BME280;40368;49.350;8.152;2024-01-11T02:58:46;1013.6;;;6.4;36.85
54459;BME280;40368;49.350;8.152;2024-01-11T02:59:47;1013.6;;;6.41;36.6
54459;BME280;40368;49.350;8.152;2024-01-11T03:00:46;1013.6;;;6.45;36.89
54459;BME280;40368;49.350;8.152;2024-01-11T03:01:46;1013.7;;;6.46;37.09
54459;BME280;40368;49.350;8.152;2024-01-11T03:02:46;1013.7;;;6.44;36.75
54459;BME280;40368;49.350;8.152;2024-01-11T03:03:46;1013.6;;;6.5;37.11
54459;BME280;40368;49.350;8.152;2024-01-11T03:04:46;1013.6;;;6.55;36.95
54459;BME280;40368;49.350;8.152;2024-01-11T03:05:46;1013.7;;;6.6;37.09
54459;BME280;40368;49.350;8.152;2024-01-11T03:06:46;1013.6;;;6.61;36.89
54459;BME280;40368;49.350;8.152;2024-01-11T03:07:46;1013.6;;;6.73;36.54
54459;BME280;40368;49.350;8.152;2024-01-11T03:08:46;1013.6;;;6.73;36.45
54459;BME280;40368;49.350;8.152;2024-01-11T03:09:46;1013.6;;;6.8;37.11
54459;BME280;40368;49.350;8.152;2024-01-11T03:10:46;1013.6;;;6.95;36.54
54459;BME280;40368;49.350;8.152;2024-01-11T03:11:46;1013.7;;;7;36.34
54459;BME280;40368;49.350;8.152;2024-01-11T03:12:46;1013.6;;;7.02;35.88
54459;BME280;40368;49.350;8.152;2024-01-11T03:13:46;1013.6;;;7.06;35.85
54459;BME280;40368;49.350;8.152;2024-01-11T03:14:47;1013.6;;;7.14;36.07
54459;BME280;40368;49.350;8.152;2024-01-11T03:15:46;1013.6;;;7.24;36.11
54459;BME280;40368;49.350;8.152;2024-01-11T03:16:46;1013.6;;;7.16;36.23
54459;BME280;40368;49.350;8.152;2024-01-11T03:17:47;1013.6;;;7.29;36.18
54459;BME280;40368;49.350;8.152;2024-01-11T03:18:46;1013.6;;;7.4;36.03
54459;BME280;40368;49.350;8.152;2024-01-11T03:19:46;1013.7;;;7.15;35.39
54459;BME280;40368;49.350;8.152;2024-01-11T03:20:46;1013.7;;;6.94;35.63
54459;BME280;40368;49.350;8.152;2024-01-11T03:21:46;1013.7;;;6.91;36.23
54459;BME280;40368;49.350;8.152;2024-01-11T03:22:46;1013.7;;;6.98;36.45
54459;BME280;40368;49.350;8.152;2024-01-11T03:23:46;1013.7;;;7.11;36.25
54459;BME280;40368;49.350;8.152;2024-01-11T03:24:46;1013.7;;;7.17;35.82
54459;BME280;40368;49.350;8.152;2024-01-11T03:25:46;1013.7;;;7.17;35.58
54459;BME280;40368;49.350;8.152;2024-01-11T03:26:47;1013.7;;;7.14;35.44
54459;BME280;40368;49.350;8.152;2024-01-11T03:27:46;1013.7;;;7;35.76
54459;BME280;40368;49.350;8.152;2024-01-11T03:28:46;1013.7;;;6.99;35.83
54459;BME280;40368;49.350;8.152;2024-01-11T03:29:46;1013.7;;;7.05;35.82
54459;BME280;40368;49.350;8.152;2024-01-11T03:30:46;1013.7;;;7.06;35.84
54459;BME280;40368;49.350;8.152;2024-01-11T03:31:46;1013.7;;;7.04;35.44
54459;BME280;40368;49.350;8.152;2024-01-11T03:32:46;1013.7;;;7.12;36.2
54459;BME280;40368;49.350;8.152;2024-01-11T03:33:46;1013.6;;;7.15;35.69
54459;BME280;40368;49.350;8.152;2024-01-11T03:34:46;1013.6;;;7.12;35.47
54459;BME280;40368;49.350;8.152;2024-01-11T03:35:46;1013.6;;;7.07;35.84
54459;BME280;40368;49.350;8.152;2024-01-11T03:36:46;1013.6;;;7;35.78
54459;BME280;40368;49.350;8.152;2024-01-11T03:37:47;1013.6;;;7.06;35.5
54459;BME280;40368;49.350;8.152;2024-01-11T03:38:46;1013.6;;;7.11;35.67
54459;BME280;40368;49.350;8.152;2024-01-11T03:39:46;1013.6;;;7.07;35.8
54459;BME280;40368;49.350;8.152;2024-01-11T03:40:46;1013.6;;;7.03;35.42
54459;BME280;40368;49.350;8.152;2024-01-11T03:41:46;1013.6;;;6.95;35.58
54459;BME280;40368;49.350;8.152;2024-01-11T03:42:46;1013.6;;;6.79;35.82
54459;BME280;40368;49.350;8.152;2024-01-11T03:43:46;1013.6;;;6.85;35.7
54459;BME280;40368;49.350;8.152;2024-01-11T03:44:46;1013.6;;;6.96;36.67
54459;BME280;40368;49.350;8.152;2024-01-11T03:45:47;1013.6;;;7.03;36.06
54459;BME280;40368;49.350;8.152;2024-01-11T03:46:46;1013.6;;;6.97;35.8
54459;BME280;40368;49.350;8.152;2024-01-11T03:47:46;1013.6;;;6.97;35.46
54459;BME280;40368;49.350;8.152;2024-01-11T03:48:46;1013.6;;;7;36.27
54459;BME280;40368;49.350;8.152;2024-01-11T03:49:46;1013.6;;;6.94;35.5
54459;BME280;40368;49.350;8.152;2024-01-11T03:50:46;1013.6;;;7;35.94
54459;BME280;40368;49.350;8.152;2024-01-11T03:51:47;1013.6;;;7.06;35.79
54459;BME280;40368;49.350;8.152;2024-01-11T03:52:46;1013.6;;;7.03;36.22
54459;BME280;40368;49.350;8.152;2024-01-11T03:53:46;1013.6;;;7.09;35.76
54459;BME280;40368;49.350;8.152;2024-01-11T03:54:46;1013.6;;;7.06;35.95
54459;BME280;40368;49.350;8.152;2024-01-11T03:55:46;1013.5;;;7.08;35.58
54459;BME280;40368;49.350;8.152;2024-01-11T03:56:46;1013.5;;;7.03;35.56
54459;BME280;40368;49.350;8.152;2024-01-11T03:57:46;1013.5;;;7.01;36.27
54459;BME280;40368;49.350;8.152;2024-01-11T03:58:46;1013.5;;;7;35.64
54459;BME280;40368;49.350;8.152;2024-01-11T03:59:46;1013.5;;;6.79;35.53
54459;BME280;40368;49.350;8.152;2024-01-11T04:00:46;1013.5;;;6.82;36.39
54459;BME280;40368;49.350;8.152;2024-01-11T04:01:46;1013.5;;;6.81;36.23
54459;BME280;40368;49.350;8.152;2024-01-11T04:03:46;1013.4;;;7;35.62
54459;BME280;40368;49.350;8.152;2024-01-11T04:04:46;1013.4;;;6.91;35.75
54459;BME280;40368;49.350;8.152;2024-01-11T04:05:46;1013.4;;;6.93;36.01
54459;BME280;40368;49.350;8.152;2024-01-11T04:06:46;1013.4;;;6.96;36.02
54459;BME280;40368;49.350;8.152;2024-01-11T04:07:46;1013.5;;;6.99;35.98
54459;BME280;40368;49.350;8.152;2024-01-11T04:08:46;1013.5;;;7.04;35.79
54459;BME280;40368;49.350;8.152;2024-01-11T04:09:47;1013.5;;;6.96;35.47
54459;BME280;40368;49.350;8.152;2024-01-11T04:10:46;1013.5;;;6.87;35.92
54459;BME280;40368;49.350;8.152;2024-01-11T04:11:46;1013.5;;;6.83;35.87
54459;BME280;40368;49.350;8.152;2024-01-11T04:12:46;1013.5;;;6.89;36.21
54459;BME280;40368;49.350;8.152;2024-01-11T04:13:46;1013.5;;;7.01;36.19
54459;BME280;40368;49.350;8.152;2024-01-11T04:14:46;1013.5;;;7.06;35.71
54459;BME280;40368;49.350;8.152;2024-01-11T04:15:46;1013.6;;;7.03;35.76
54459;BME280;40368;49.350;8.152;2024-01-11T04:16:47;1013.5;;;7.03;35.13
54459;BME280;40368;49.350;8.152;2024-01-11T04:17:47;1013.6;;;6.9;35.84
54459;BME280;40368;49.350;8.152;2024-01-11T04:18:46;1013.6;;;6.86;35.93
54459;BME280;40368;49.350;8.152;2024-01-11T04:19:46;1013.5;;;6.9;35.91
54459;BME280;40368;49.350;8.152;2024-01-11T04:20:46;1013.6;;;6.76;35.95
54459;BME280;40368;49.350;8.152;2024-01-11T04:21:46;1013.6;;;6.58;36.06
54459;BME280;40368;49.350;8.152;2024-01-11T04:22:46;1013.5;;;6.61;36.57
54459;BME280;40368;49.350;8.152;2024-01-11T04:23:46;1013.5;;;6.7;36.57
54459;BME280;40368;49.350;8.152;2024-01-11T04:24:46;1013.6;;;6.71;35.99
54459;BME280;40368;49.350;8.152;2024-01-11T04:25:47;1013.5;;;6.78;36.6
54459;BME280;40368;49.350;8.152;2024-01-11T04:26:47;1013.5;;;6.87;35.93
54459;BME280;40368;49.350;8.152;2024-01-11T04:27:46;1013.5;;;6.86;36.38
54459;BME280;40368;49.350;8.152;2024-01-11T04:28:46;1013.5;;;6.92;35.91
54459;BME280;40368;49.350;8.152;2024-01-11T04:29:46;1013.5;;;6.94;35.95
54459;BME280;40368;49.350;8.152;2024-01-11T04:30:46;1013.5;;;6.99;36.24
54459;BME280;40368;49.350;8.152;2024-01-11T04:31:46;1013.5;;;7.01;36.08
54459;BME280;40368;49.350;8.152;2024-01-11T04:32:46;1013.5;;;6.95;35.57
54459;BME280;40368;49.350;8.152;2024-01-11T04:33:46;1013.5;;;6.98;35.86
54459;BME280;40368;49.350;8.152;2024-01-11T04:34:46;1013.5;;;6.98;35.94
54459;BME280;40368;49.350;8.152;2024-01-11T04:35:46;1013.5;;;7.09;36.23
54459;BME280;40368;49.350;8.152;2024-01-11T04:37:46;1013.5;;;7.2;36.04
54459;BME280;40368;49.350;8.152;2024-01-11T04:38:46;1013.5;;;7.28;35.44
54459;BME280;40368;49.350;8.152;2024-01-11T04:39:46;1013.5;;;7.22;35.38
54459;BME280;40368;49.350;8.152;2024-01-11T04:40:46;1013.5;;;7.1;35.16
54459;BME280;40368;49.350;8.152;2024-01-11T04:41:46;1013.5;;;6.87;35.89
54459;BME280;40368;49.350;8.152;2024-01-11T04:42:46;1013.5;;;6.85;36.26
54459;BME280;40368;49.350;8.152;2024-01-11T04:43:46;1013.6;;;6.82;35.95
54459;BME280;40368;49.350;8.152;2024-01-11T04:44:46;1013.5;;;6.85;36.09
54459;BME280;40368;49.350;8.152;2024-01-11T04:46:47;1013.6;;;6.87;35.74
54459;BME280;40368;49.350;8.152;2024-01-11T04:47:46;1013.5;;;6.81;35.93
54459;BME280;40368;49.350;8.152;2024-01-11T04:48:47;1013.6;;;6.91;36.03
54459;BME280;40368;49.350;8.152;2024-01-11T04:49:46;1013.6;;;7;35.52
54459;BME280;40368;49.350;8.152;2024-01-11T04:50:46;1013.5;;;7.09;36.26
54459;BME280;40368;49.350;8.152;2024-01-11T04:51:45;1013.6;;;7.22;35.66
54459;BME280;40368;49.350;8.152;2024-01-11T04:52:47;1013.6;;;7.14;35.15
54459;BME280;40368;49.350;8.152;2024-01-11T04:53:46;1013.6;;;7.07;35.45
54459;BME280;40368;49.350;8.152;2024-01-11T04:54:46;1013.6;;;6.96;35.47
54459;BME280;40368;49.350;8.152;2024-01-11T04:55:46;1013.6;;;7.01;36.22
54459;BME280;40368;49.350;8.152;2024-01-11T04:56:46;1013.7;;;6.99;35.47
54459;BME280;40368;49.350;8.152;2024-01-11T04:57:46;1013.7;;;6.96;35.45
54459;BME280;40368;49.350;8.152;2024-01-11T04:58:46;1013.7;;;6.9;35.74
54459;BME280;40368;49.350;8.152;2024-01-11T04:59:46;1013.7;;;6.94;36.23
54459;BME280;40368;49.350;8.152;2024-01-11T05:00:46;1013.7;;;6.91;35.71
54459;BME280;40368;49.350;8.152;2024-01-11T05:01:46;1013.8;;;6.8;35.61
54459;BME280;40368;49.350;8.152;2024-01-11T05:02:46;1013.8;;;6.7;35.85
54459;BME280;40368;49.350;8.152;2024-01-11T05:03:46;1013.7;;;6.7;35.86
54459;BME280;40368;49.350;8.152;2024-01-11T05:04:46;1013.8;;;6.68;35.94
54459;BME280;40368;49.350;8.152;2024-01-11T05:05:46;1013.7;;;6.75;35.98
54459;BME280;40368;49.350;8.152;2024-01-11T05:06:46;1013.8;;;6.82;36.51
54459;BME280;40368;49.350;8.152;2024-01-11T05:07:46;1013.8;;;6.89;35.86
54459;BME280;40368;49.350;8.152;2024-01-11T05:08:46;1013.8;;;6.98;36.07
54459;BME280;40368;49.350;8.152;2024-01-11T05:09:46;1013.8;;;6.97;35.55
54459;BME280;40368;49.350;8.152;2024-01-11T05:10:46;1013.8;;;6.93;35.39
54459;BME280;40368;49.350;8.152;2024-01-11T05:11:46;1013.8;;;6.95;35.53
54459;BME280;40368;49.350;8.152;2024-01-11T05:12:47;1013.8;;;6.94;35.17
54459;BME280;40368;49.350;8.152;2024-01-11T05:13:46;1013.9;;;6.92;35.53
54459;BME280;40368;49.350;8.152;2024-01-11T05:14:46;1013.8;;;6.96;35.66
54459;BME280;40368;49.350;8.152;2024-01-11T05:15:46;1013.8;;;7.02;35.64
54459;BME280;40368;49.350;8.152;2024-01-11T05:16:46;1013.9;;;7.09;35.48
54459;BME280;40368;49.350;8.152;2024-01-11T05:17:46;1013.9;;;7.12;35.83
54459;BME280;40368;49.350;8.152;2024-01-11T05:18:46;1013.9;;;7.15;35.18
54459;BME280;40368;49.350;8.152;2024-01-11T05:19:46;1013.9;;;7.12;35.27
54459;BME280;40368;49.350;8.152;2024-01-11T05:20:46;1013.8;;;7.15;35.56
54459;BME280;40368;49.350;8.152;2024-01-11T05:21:46;1013.9;;;7.18;35.12
54459;BME280;40368;49.350;8.152;2024-01-11T05:22:46;1013.8;;;7.23;35.76
54459;BME280;40368;49.350;8.152;2024-01-11T05:23:46;1013.8;;;7.19;35.68
54459;BME280;40368;49.350;8.152;2024-01-11T05:24:46;1013.8;;;7.06;35.68
54459;BME280;40368;49.350;8.152;2024-01-11T05:25:46;1013.9;;;7.12;35.73
54459;BME280;40368;49.350;8.152;2024-01-11T05:26:45;1013.9;;;7.05;35.05
54459;BME280;40368;49.350;8.152;2024-01-11T05:27:46;1013.9;;;7.07;35.51
54459;BME280;40368;49.350;8.152;2024-01-11T05:28:46;1013.9;;;7.1;35.36
54459;BME280;40368;49.350;8.152;2024-01-11T05:29:47;1013.8;;;7.08;35.99
54459;BME280;40368;49.350;8.152;2024-01-11T05:30:46;1013.8;;;7.07;35.77
54459;BME280;40368;49.350;8.152;2024-01-11T05:31:46;1013.8;;;7.07;36.29
54459;BME280;40368;49.350;8.152;2024-01-11T05:32:46;1013.8;;;7.08;35.39
54459;BME280;40368;49.350;8.152;2024-01-11T05:33:46;1013.8;;;7.03;35.15
54459;BME280;40368;49.350;8.152;2024-01-11T05:34:46;1013.9;;;6.96;35.92
54459;BME280;40368;49.350;8.152;2024-01-11T05:35:46;1013.9;;;6.86;35.5